Time;durP1;ratioP1;P1;durP2;ratioP2;P2;SDS_P1;SDS_P2;PMS_P1;PMS_P2;Temp;Humidity;BMP_temperature;BMP_pressure;BME280_temperature;BME280_humidity;BME280_pressure;Samples;Min_cycle;Max_cycle;Signal;HPM_P1;HPM_P2
2022/01/29 00:01:11;;;;;;;58.72;25.08;;;;;;;-3.17;69.68;97730.84;5031585;28;20046;-59
2022/01/29 00:03:37;;;;;;;59.58;25.80;;;;;;;-3.22;70.28;97727.00;5030001;28;20037;-60
2022/01/29 00:06:03;;;;;;;68.95;26.95;;;;;;;-3.22;70.22;97721.03;5031497;28;20041;-58
2022/01/29 00:08:30;;;;;;;66.53;26.13;;;;;;;-3.23;70.45;97725.41;5031328;28;20041;-58
2022/01/29 00:11:03;;;;;;;61.00;25.05;;;;;;;-3.18;70.63;97719.66;5031269;28;20108;-59
2022/01/29 00:13:28;;;;;;;60.10;24.88;;;;;;;-3.17;69.74;97720.47;5031041;28;20041;-58
2022/01/29 00:15:54;;;;;;;69.78;25.33;;;;;;;-3.12;69.53;97721.47;5031550;28;20111;-60
2022/01/29 00:18:20;;;;;;;70.72;26.02;;;;;;;-3.08;69.88;97719.31;5029813;28;20422;-57
2022/01/29 00:20:45;;;;;;;57.80;24.58;;;;;;;-3.01;69.75;97720.94;5029466;28;20466;-57
2022/01/29 00:23:11;;;;;;;62.13;24.55;;;;;;;-3.02;69.82;97721.16;5031012;28;20037;-59
2022/01/29 00:25:37;;;;;;;62.08;24.65;;;;;;;-2.97;69.70;97727.38;5031312;28;20068;-58
2022/01/29 00:28:03;;;;;;;56.67;24.40;;;;;;;-2.94;69.70;97731.38;5031186;28;20092;-58
2022/01/29 00:30:36;;;;;;;63.05;25.42;;;;;;;-2.91;69.89;97730.97;5033456;28;20569;-58
2022/01/29 00:33:02;;;;;;;63.08;25.63;;;;;;;-2.92;69.79;97737.13;5033510;28;20034;-58
2022/01/29 00:35:27;;;;;;;56.95;22.77;;;;;;;-2.91;69.12;97736.16;5034609;28;20454;-57
2022/01/29 00:37:53;;;;;;;66.75;24.83;;;;;;;-2.99;69.76;97731.13;5034518;28;20037;-58
2022/01/29 00:40:20;;;;;;;65.80;24.92;;;;;;;-3.01;69.53;97723.53;5034864;28;20068;-58
2022/01/29 00:42:46;;;;;;;61.88;24.35;;;;;;;-2.97;69.62;97727.38;5034493;28;20041;-56
2022/01/29 00:45:12;;;;;;;59.90;24.02;;;;;;;-2.90;69.74;97731.78;5016855;28;20095;-59
2022/01/29 00:47:38;;;;;;;58.63;24.08;;;;;;;-2.92;68.92;97726.78;5034659;28;20042;-56
2022/01/29 00:50:04;;;;;;;58.97;24.80;;;;;;;-2.92;69.37;97726.78;5034731;28;20548;-58
2022/01/29 00:52:29;;;;;;;64.18;23.92;;;;;;;-2.92;69.69;97728.56;5034196;28;20466;-57
2022/01/29 00:54:55;;;;;;;57.95;23.50;;;;;;;-2.93;68.91;97727.78;5034607;28;20048;-57
2022/01/29 00:57:21;;;;;;;59.20;23.98;;;;;;;-2.92;69.04;97723.38;5032997;28;20506;-58
2022/01/29 00:59:47;;;;;;;61.03;23.83;;;;;;;-2.89;69.56;97730.78;5032950;28;20079;-58
2022/01/29 01:02:13;;;;;;;57.78;23.45;;;;;;;-2.97;68.73;97729.97;5034017;28;20077;-58
2022/01/29 01:04:39;;;;;;;67.50;25.00;;;;;;;-3.05;68.98;97729.31;5034232;28;20099;-58
2022/01/29 01:07:06;;;;;;;56.72;24.52;;;;;;;-3.10;69.79;97732.47;5016740;28;20037;-59
2022/01/29 01:09:32;;;;;;;65.93;25.67;;;;;;;-3.03;69.45;97725.53;5034236;28;20042;-53
2022/01/29 01:11:58;;;;;;;57.83;24.15;;;;;;;-3.03;69.23;97722.13;5033755;28;20063;-59
2022/01/29 01:14:24;;;;;;;63.75;24.38;;;;;;;-3.05;69.18;97714.56;5032668;28;20052;-59
2022/01/29 01:16:49;;;;;;;61.10;24.45;;;;;;;-3.07;69.15;97718.31;5033858;28;20075;-59
2022/01/29 01:19:15;;;;;;;67.00;25.15;;;;;;;-3.14;69.05;97720.88;5033925;28;20482;-59
2022/01/29 01:21:41;;;;;;;63.28;24.15;;;;;;;-3.17;69.91;97723.06;5033611;28;20041;-60
2022/01/29 01:24:06;;;;;;;59.47;23.00;;;;;;;-3.20;69.92;97713.88;5033765;28;20041;-58
2022/01/29 01:26:32;;;;;;;58.75;23.88;;;;;;;-3.14;70.02;97718.28;5033948;28;20037;-60
2022/01/29 01:28:58;;;;;;;61.50;24.60;;;;;;;-3.11;69.77;97717.13;5033833;28;20495;-59
2022/01/29 01:31:24;;;;;;;60.03;24.75;;;;;;;-3.12;70.69;97721.47;5033894;28;20057;-61
2022/01/29 01:33:50;;;;;;;67.88;25.63;;;;;;;-3.10;69.97;97724.69;5033835;28;20037;-60
2022/01/29 01:36:20;;;;;;;60.38;23.98;;;;;;;-3.11;69.52;97714.53;5033871;28;20068;-59
2022/01/29 01:38:51;;;;;;;57.37;24.03;;;;;;;-3.11;68.78;97722.28;5032426;28;20526;-59
2022/01/29 01:41:22;;;;;;;58.92;24.35;;;;;;;-3.07;70.62;97721.72;5033910;28;20049;-59
2022/01/29 01:43:48;;;;;;;61.35;22.90;;;;;;;-3.00;69.75;97713.97;5033811;28;20127;-60
2022/01/29 01:46:14;;;;;;;59.55;22.58;;;;;;;-3.03;69.35;97716.94;5033968;28;20565;-60
2022/01/29 01:48:39;;;;;;;63.90;23.80;;;;;;;-3.08;69.06;97711.53;5033466;28;20518;-59
2022/01/29 01:51:06;;;;;;;53.35;23.33;;;;;;;-3.08;69.31;97722.72;5033180;28;20103;-60
2022/01/29 01:53:32;;;;;;;53.30;23.40;;;;;;;-3.08;69.59;97714.13;5033122;28;20042;-60
2022/01/29 01:55:58;;;;;;;62.03;25.02;;;;;;;-3.09;69.32;97721.13;5033622;28;20041;-58
2022/01/29 01:58:24;;;;;;;68.28;24.30;;;;;;;-3.05;69.67;97717.16;5032147;28;20068;-59
2022/01/29 02:00:50;;;;;;;55.80;23.45;;;;;;;-2.98;69.53;97719.75;5033297;28;20045;-59
2022/01/29 02:03:15;;;;;;;59.55;24.23;;;;;;;-2.94;70.46;97720.16;5033005;28;20037;-59
2022/01/29 02:05:41;;;;;;;56.25;22.95;;;;;;;-2.96;69.20;97717.78;5033375;28;20052;-60
2022/01/29 02:08:08;;;;;;;57.45;23.83;;;;;;;-2.90;69.83;97721.41;5015273;28;20045;-59
2022/01/29 02:10:34;;;;;;;59.75;24.52;;;;;;;-2.97;69.58;97727.38;5033130;28;20068;-60
2022/01/29 02:13:03;;;;;;;66.07;25.80;;;;;;;-2.99;69.28;97720.75;5031795;28;20045;-59
2022/01/29 02:15:30;;;;;;;66.20;26.00;;;;;;;-2.98;69.59;97727.53;5031711;28;20045;-59
2022/01/29 02:17:56;;;;;;;63.72;24.90;;;;;;;-3.05;68.79;97726.72;5031668;28;20044;-59
2022/01/29 02:20:27;;;;;;;61.13;24.80;;;;;;;-3.06;69.62;97720.75;5031589;28;20076;-59
2022/01/29 02:22:53;;;;;;;61.75;24.52;;;;;;;-3.07;68.81;97719.13;5031654;28;20068;-59
2022/01/29 02:25:44;;;;;;;64.95;24.65;;;;;;;-3.06;70.35;97725.09;5031511;28;20132;-58
2022/01/29 02:28:14;;;;;;;58.17;23.45;;;;;;;-3.04;70.19;97723.13;5032744;28;20046;-59
2022/01/29 02:30:42;;;;;;;59.03;23.40;;;;;;;-3.05;69.64;97730.09;5032817;28;20061;-58
2022/01/29 02:33:12;;;;;;;66.93;26.13;;;;;;;-3.05;69.85;97724.91;5031494;28;20581;-59
2022/01/29 02:35:43;;;;;;;61.65;24.25;;;;;;;-3.04;69.14;97723.91;5032366;28;20462;-58
2022/01/29 02:38:10;;;;;;;62.10;23.98;;;;;;;-3.00;69.89;97724.31;5032651;28;20041;-58
2022/01/29 02:40:43;;;;;;;57.53;24.55;;;;;;;-2.98;69.53;97730.13;5032494;28;20056;-60
2022/01/29 02:44:03;;;;;;;51.05;23.20;;;;;;;-3.03;68.88;97728.13;5032238;28;20157;-58
2022/01/29 02:46:30;;;;;;;53.75;24.27;;;;;;;-3.10;68.64;97729.06;5030869;28;20060;-60
2022/01/29 02:48:58;;;;;;;60.95;25.50;;;;;;;-3.15;69.56;97724.44;5032295;28;20041;-60
2022/01/29 02:51:24;;;;;;;59.17;23.63;;;;;;;-3.10;69.20;97716.91;5032126;28;20074;-57
2022/01/29 02:53:50;;;;;;;65.38;24.75;;;;;;;-3.15;69.33;97721.84;5031404;28;20069;-59
2022/01/29 02:56:16;;;;;;;58.35;25.10;;;;;;;-3.15;70.07;97726.25;5032552;28;20041;-61
2022/01/29 02:58:42;;;;;;;59.08;26.63;;;;;;;-3.18;69.68;97726.63;5032128;28;20044;-59
2022/01/29 03:01:08;;;;;;;67.10;26.27;;;;;;;-3.16;69.78;97725.44;5030830;28;20065;-58
2022/01/29 03:03:34;;;;;;;71.93;27.40;;;;;;;-3.06;69.36;97735.47;5031787;28;20057;-59
2022/01/29 03:06:07;;;;;;;67.35;26.15;;;;;;;-3.08;68.38;97735.66;5032315;28;20045;-59
2022/01/29 03:08:33;;;;;;;61.03;25.77;;;;;;;-3.14;69.27;97746.81;5030579;28;20589;-55
2022/01/29 03:10:59;;;;;;;63.20;26.50;;;;;;;-3.18;68.91;97740.38;5014303;28;20045;-58
2022/01/29 03:13:25;;;;;;;58.97;24.80;;;;;;;-3.26;69.20;97730.19;5031746;28;20067;-59
2022/01/29 03:15:51;;;;;;;63.47;26.58;;;;;;;-3.18;68.92;97734.41;5032206;28;20041;-57
2022/01/29 03:18:17;;;;;;;57.85;26.13;;;;;;;-3.23;68.95;97740.16;5032036;28;20045;-60
2022/01/29 03:20:43;;;;;;;59.85;24.77;;;;;;;-3.27;69.47;97736.34;5032010;28;20068;-58
2022/01/29 03:23:08;;;;;;;66.38;25.02;;;;;;;-3.31;69.25;97725.56;5032004;28;20052;-57
2022/01/29 03:25:34;;;;;;;55.80;23.73;;;;;;;-3.32;69.94;97728.34;4997995;28;20494;-58
2022/01/29 03:28:00;;;;;;;56.03;22.90;;;;;;;-3.35;69.07;97721.75;5031713;28;20091;-59
2022/01/29 03:30:26;;;;;;;59.35;24.08;;;;;;;-3.36;69.57;97720.13;5031842;28;20050;-59
2022/01/29 03:32:51;;;;;;;61.20;23.90;;;;;;;-3.38;69.42;97724.72;5031525;28;20149;-58
2022/01/29 03:35:17;;;;;;;59.47;23.45;;;;;;;-3.38;69.93;97731.66;5030345;28;20061;-59
2022/01/29 03:37:43;;;;;;;55.63;22.90;;;;;;;-3.32;71.07;97736.91;5031494;28;20049;-58
2022/01/29 03:40:09;;;;;;;52.45;21.58;;;;;;;-3.29;69.27;97736.53;5029909;28;20046;-56
2022/01/29 03:42:44;;;;;;;59.92;24.35;;;;;;;-3.29;69.64;97738.34;5031231;28;20107;-59
2022/01/29 03:45:10;;;;;;;72.43;24.08;;;;;;;-3.24;69.85;97733.38;5031514;28;20076;-58
2022/01/29 03:47:36;;;;;;;61.20;24.38;;;;;;;-3.23;69.73;97735.78;5029620;28;20131;-59
2022/01/29 03:50:03;;;;;;;59.08;23.45;;;;;;;-3.28;70.46;97737.34;5031167;28;20072;-60
2022/01/29 03:52:29;;;;;;;59.78;24.38;;;;;;;-3.28;69.86;97732.16;5031182;28;20053;-58
2022/01/29 03:54:54;;;;;;;54.80;23.20;;;;;;;-3.27;70.09;97739.72;5029863;28;20049;-58
2022/01/29 03:57:20;;;;;;;58.38;23.75;;;;;;;-3.34;69.27;97732.91;5029878;28;20044;-59
2022/01/29 03:59:46;;;;;;;56.97;23.13;;;;;;;-3.26;69.06;97746.53;5013622;28;20053;-59
2022/01/29 04:02:11;;;;;;;60.20;23.50;;;;;;;-3.15;69.45;97746.97;5031129;28;20519;-59
2022/01/29 04:04:37;;;;;;;52.50;22.92;;;;;;;-3.09;69.57;97751.41;5032525;28;20466;-58
2022/01/29 04:07:09;;;;;;;59.38;24.80;;;;;;;-3.09;69.80;97749.63;5035289;28;20056;-57
2022/01/29 04:09:35;;;;;;;53.90;23.00;;;;;;;-3.08;69.41;97753.03;5033652;28;20057;-59
2022/01/29 04:12:02;;;;;;;56.30;23.48;;;;;;;-3.06;69.54;97759.63;5034021;28;20056;-58
2022/01/29 04:14:35;;;;;;;61.78;23.55;;;;;;;-3.01;70.09;97757.22;5035307;28;20450;-56
2022/01/29 04:17:00;;;;;;;53.20;22.27;;;;;;;-2.90;68.72;97768.88;5035242;28;20041;-60
2022/01/29 04:19:26;;;;;;;52.50;21.80;;;;;;;-2.84;69.38;97765.50;5035162;28;20048;-59
2022/01/29 04:21:52;;;;;;;54.50;22.27;;;;;;;-2.82;68.79;97773.13;5035007;28;20129;-58
2022/01/29 04:24:17;;;;;;;53.03;22.73;;;;;;;-2.80;69.93;97764.13;5034789;28;20491;-58
2022/01/29 04:26:44;;;;;;;56.70;23.48;;;;;;;-2.70;70.22;97771.59;5034711;28;20571;-58
2022/01/29 04:29:11;;;;;;;67.45;24.08;;;;;;;-2.67;69.53;97768.59;5034794;28;20049;-56
2022/01/29 04:31:43;;;;;;;58.55;23.50;;;;;;;-2.68;69.29;97763.59;5034789;28;20045;-58
2022/01/29 04:34:09;;;;;;;60.40;24.95;;;;;;;-2.67;68.83;97758.22;5033493;28;20124;-59
2022/01/29 04:36:35;;;;;;;56.17;23.08;;;;;;;-2.69;68.05;97762.78;5033592;28;20148;-60
2022/01/29 04:39:00;;;;;;;60.78;24.15;;;;;;;-2.70;68.07;97763.81;5034525;28;20037;-59
2022/01/29 04:41:26;;;;;;;61.10;23.80;;;;;;;-2.69;68.04;97759.41;5034695;28;20446;-60
2022/01/29 04:43:52;;;;;;;56.00;24.25;;;;;;;-2.72;68.51;97763.19;5034492;28;20080;-59
2022/01/29 04:46:18;;;;;;;59.28;23.77;;;;;;;-2.81;68.45;97748.78;5034693;28;20418;-58
2022/01/29 04:48:43;;;;;;;63.90;24.05;;;;;;;-2.79;68.11;97755.38;5034604;28;20033;-58
2022/01/29 04:51:09;;;;;;;61.15;24.70;;;;;;;-2.76;68.90;97756.78;5034224;28;20041;-60
2022/01/29 04:53:35;;;;;;;59.60;25.13;;;;;;;-2.70;68.72;97750.84;5034343;28;20053;-56
2022/01/29 04:56:01;;;;;;;61.45;24.42;;;;;;;-2.70;68.52;97744.84;5034642;28;20140;-58
2022/01/29 04:58:27;;;;;;;60.38;22.45;;;;;;;-2.68;69.37;97753.22;5032913;28;20120;-59
2022/01/29 05:00:53;;;;;;;54.22;23.88;;;;;;;-2.71;69.22;97741.44;5034330;28;20056;-60
2022/01/29 05:03:19;;;;;;;51.75;22.88;;;;;;;-2.67;69.07;97750.44;5033909;28;20037;-59
2022/01/29 05:05:44;;;;;;;56.28;23.90;;;;;;;-2.64;68.61;97751.84;5016302;28;20046;-57
2022/01/29 05:08:13;;;;;;;55.17;22.42;;;;;;;-2.67;67.79;97745.25;5033682;28;20034;-58
2022/01/29 05:10:39;;;;;;;61.45;23.77;;;;;;;-2.75;69.57;97746.22;5032529;28;20128;-58
2022/01/29 05:13:11;;;;;;;60.78;24.70;;;;;;;-2.79;69.03;97745.00;5033830;28;20140;-58
2022/01/29 05:15:45;;;;;;;58.42;24.40;;;;;;;-2.72;68.87;97747.63;5033419;28;20053;-58
2022/01/29 05:29:09;;;;;;;55.72;24.45;;;;;;;-3.15;69.03;97746.97;5032314;28;20049;-59
2022/01/29 05:31:35;;;;;;;62.08;24.92;;;;;;;-3.17;69.88;97744.59;5033795;28;20049;-59
2022/01/29 05:34:01;;;;;;;68.60;26.25;;;;;;;-3.13;69.78;97753.56;5033707;28;20047;-58
2022/01/29 05:36:27;;;;;;;65.15;23.95;;;;;;;-3.06;69.83;97748.44;5033085;28;20057;-58
2022/01/29 05:38:53;;;;;;;65.53;25.05;;;;;;;-3.00;69.99;97766.63;5032116;28;20541;-59
2022/01/29 05:41:18;;;;;;;71.53;26.25;;;;;;;-3.01;68.89;97764.22;5033405;28;20053;-60
2022/01/29 05:43:44;;;;;;;70.53;26.33;;;;;;;-3.05;68.41;97757.81;5033549;28;20045;-58
2022/01/29 05:46:11;;;;;;;64.40;26.50;;;;;;;-2.98;69.70;97761.25;5032286;28;20099;-59
2022/01/29 05:48:37;;;;;;;62.42;25.40;;;;;;;-3.00;68.73;97764.03;5033387;28;20396;-59
2022/01/29 05:51:03;;;;;;;68.65;27.50;;;;;;;-3.01;69.89;97769.41;5015455;28;20041;-58
2022/01/29 05:53:28;;;;;;;69.00;24.88;;;;;;;-3.03;69.66;97761.84;5032104;28;20044;-59
2022/01/29 05:55:54;;;;;;;60.65;24.85;;;;;;;-3.04;69.21;97769.78;5033605;28;20470;-59
2022/01/29 05:58:21;;;;;;;62.40;24.45;;;;;;;-3.00;69.10;97773.59;5033136;28;20038;-58
2022/01/29 06:00:46;;;;;;;55.70;23.83;;;;;;;-2.94;69.58;97772.03;5032724;28;20049;-58
2022/01/29 06:03:12;;;;;;;61.17;23.73;;;;;;;-2.92;69.05;97772.66;5032784;28;20148;-58
2022/01/29 06:05:38;;;;;;;55.42;22.98;;;;;;;-2.93;68.61;97774.44;5031598;28;20053;-59
2022/01/29 06:08:04;;;;;;;58.75;23.40;;;;;;;-2.95;69.32;97781.59;5032717;28;20128;-58
2022/01/29 06:10:30;;;;;;;57.00;23.13;;;;;;;-2.95;68.97;97780.81;5011607;28;20101;-59
2022/01/29 06:12:59;;;;;;;62.63;24.20;;;;;;;-2.98;69.66;97774.19;5011828;28;20050;-58
2022/01/29 06:15:25;;;;;;;61.95;26.10;;;;;;;-2.95;68.76;97788.59;5013433;28;20046;-58
2022/01/29 06:17:51;;;;;;;74.72;30.08;;;;;;;-3.07;68.63;97781.31;5013187;28;20100;-59
2022/01/29 06:20:16;;;;;;;91.07;37.33;;;;;;;-3.04;68.60;97787.94;5016802;28;20041;-58
2022/01/29 06:22:42;;;;;;;90.13;34.17;;;;;;;-3.11;69.79;97767.16;5031211;28;20041;-62
2022/01/29 06:25:08;;;;;;;85.80;35.47;;;;;;;-3.04;69.32;97778.34;5008975;28;20049;-61
2022/01/29 06:27:34;;;;;;;77.68;35.05;;;;;;;-3.06;69.36;97787.31;5031383;28;20092;-61
2022/01/29 06:30:00;;;;;;;73.63;32.38;;;;;;;-2.99;69.57;97795.94;5031071;28;20506;-62
2022/01/29 06:32:26;;;;;;;74.75;31.00;;;;;;;-2.97;69.22;97789.59;5031699;28;20045;-62
2022/01/29 06:34:51;;;;;;;65.55;28.25;;;;;;;-2.90;69.35;97799.19;5031715;28;20133;-63
2022/01/29 06:37:17;;;;;;;62.17;25.55;;;;;;;-2.79;68.77;97804.66;5031145;28;20539;-59
2022/01/29 06:39:43;;;;;;;64.90;26.13;;;;;;;-2.72;68.77;97803.88;5031901;28;20037;-60
2022/01/29 06:42:09;;;;;;;66.18;27.48;;;;;;;-2.73;67.55;97797.91;5031188;28;20037;-58
2022/01/29 06:44:34;;;;;;;67.00;26.75;;;;;;;-2.88;68.54;97800.59;5014291;28;20139;-58
2022/01/29 06:47:04;;;;;;;67.53;28.65;;;;;;;-2.82;68.92;97799.84;5031678;28;20025;-60
2022/01/29 06:49:31;;;;;;;68.60;26.95;;;;;;;-2.72;68.40;97801.28;5012633;28;20115;-57
2022/01/29 06:51:57;;;;;;;71.75;27.27;;;;;;;-2.72;67.51;97798.69;5030333;28;20045;-59
2022/01/29 06:54:23;;;;;;;67.78;27.73;;;;;;;-2.65;67.77;97802.13;5030993;28;20128;-59
2022/01/29 06:56:48;;;;;;;70.32;27.25;;;;;;;-2.66;66.73;97798.72;5031118;28;20519;-59
2022/01/29 06:59:14;;;;;;;86.13;29.25;;;;;;;-2.72;67.51;97799.50;4997837;28;20045;-60
2022/01/29 07:01:40;;;;;;;67.93;27.08;;;;;;;-2.70;67.74;97802.72;5031185;28;20449;-60
2022/01/29 07:04:06;;;;;;;65.07;25.55;;;;;;;-2.58;69.06;97808.94;5031894;28;20653;-58
2022/01/29 07:06:32;;;;;;;65.22;25.83;;;;;;;-2.46;68.62;97811.81;5030288;28;20033;-61
2022/01/29 07:08:58;;;;;;;67.88;27.23;;;;;;;-2.43;68.10;97818.41;5025302;28;20038;-59
2022/01/29 07:11:25;;;;;;;67.35;27.30;;;;;;;-2.45;67.18;97818.59;5010408;28;20495;-60
2022/01/29 07:14:02;;;;;;;64.32;25.58;;;;;;;-2.45;67.17;97812.59;5010372;28;20046;-59
2022/01/29 07:16:30;;;;;;;63.60;25.80;;;;;;;-2.46;67.95;97814.41;5010423;28;20124;-60
2022/01/29 07:18:56;;;;;;;63.60;27.98;;;;;;;-2.37;67.62;97815.03;5011557;28;20073;-62
2022/01/29 07:21:22;;;;;;;76.90;29.15;;;;;;;-2.30;67.00;97808.88;5026422;28;20649;-62
2022/01/29 07:23:47;;;;;;;70.28;27.25;;;;;;;-2.28;67.10;97816.47;5030896;28;20123;-62
2022/01/29 07:26:15;;;;;;;68.25;28.77;;;;;;;-2.31;66.61;97822.84;5030272;28;20098;-60
2022/01/29 07:28:42;;;;;;;73.50;30.40;;;;;;;-2.32;66.41;97818.66;5030900;28;20065;-62
2022/01/29 07:31:10;;;;;;;75.20;31.30;;;;;;;-2.56;66.20;97781.03;5031492;28;20411;-60
2022/01/29 07:33:36;;;;;;;79.15;31.40;;;;;;;-2.37;66.87;97812.44;5029422;28;20147;-58
2022/01/29 07:36:04;;;;;;;73.55;31.73;;;;;;;-2.33;67.25;97808.47;5031066;28;20050;-58
2022/01/29 07:38:30;;;;;;;69.53;29.58;;;;;;;-2.20;66.95;97816.31;4996332;28;20051;-61
2022/01/29 07:40:56;;;;;;;75.25;31.95;;;;;;;-2.05;66.27;97818.75;5031245;28;20167;-60
2022/01/29 07:43:22;;;;;;;76.72;32.08;;;;;;;-2.04;66.11;97816.97;5028221;28;20041;-54
2022/01/29 07:45:48;;;;;;;71.35;29.27;;;;;;;-1.92;66.39;97825.78;5036952;28;20518;-57
2022/01/29 07:48:17;;;;;;;77.00;31.95;;;;;;;-1.79;67.45;97831.03;5029356;28;20045;-60
2022/01/29 07:50:43;;;;;;;68.85;30.02;;;;;;;-1.65;65.84;97824.03;5029642;28;20479;-60
2022/01/29 07:53:11;;;;;;;62.97;29.58;;;;;;;-1.59;65.35;97818.06;5012823;28;20131;-58
2022/01/29 07:55:36;;;;;;;74.70;29.70;;;;;;;-1.47;65.38;97813.06;5030440;28;20514;-60
2022/01/29 07:58:02;;;;;;;72.93;29.13;;;;;;;-1.36;65.65;97820.28;5029867;28;20045;-59
2022/01/29 08:00:29;;;;;;;67.80;28.02;;;;;;;-1.27;63.36;97820.88;5038586;28;20525;-60
2022/01/29 08:02:55;;;;;;;73.07;30.83;;;;;;;-1.21;64.71;97826.06;5028250;28;20045;-58
2022/01/29 08:05:21;;;;;;;69.30;30.70;;;;;;;-1.07;64.56;97821.69;5028638;28;20046;-55
2022/01/29 08:07:46;;;;;;;70.65;30.63;;;;;;;-1.04;63.99;97818.69;5011640;28;20669;-60
2022/01/29 08:10:12;;;;;;;77.88;29.45;;;;;;;-0.95;63.53;97812.25;5030815;28;20041;-57
2022/01/29 08:12:38;;;;;;;70.05;28.85;;;;;;;-1.01;62.86;97814.88;5030904;28;20045;-59
2022/01/29 08:15:06;;;;;;;74.63;29.55;;;;;;;-1.06;63.70;97819.88;5013008;28;20406;-59
2022/01/29 08:17:32;;;;;;;75.90;30.52;;;;;;;-0.99;63.71;97820.69;5029840;28;20457;-58
2022/01/29 08:19:58;;;;;;;76.63;30.95;;;;;;;-0.92;63.61;97824.88;5013365;28;20076;-60
2022/01/29 08:22:24;;;;;;;76.47;32.03;;;;;;;-0.92;63.03;97819.66;5030314;28;20061;-59
2022/01/29 08:24:52;;;;;;;80.55;33.25;;;;;;;-0.83;63.22;97822.84;5030677;28;20045;-59
2022/01/29 08:27:18;;;;;;;79.78;35.25;;;;;;;-0.82;62.71;97832.28;5029648;28;20509;-60
2022/01/29 08:29:44;;;;;;;72.53;33.20;;;;;;;-0.69;62.23;97821.84;5031119;28;20072;-60
2022/01/29 08:32:10;;;;;;;78.13;32.30;;;;;;;-0.48;62.24;97818.19;5030287;28;20495;-58
2022/01/29 08:34:39;;;;;;;77.75;33.45;;;;;;;-0.39;61.83;97820.56;5029149;28;20446;-58
2022/01/29 08:37:07;;;;;;;77.28;34.85;;;;;;;-0.32;61.65;97821.38;4980623;28;20107;-59
2022/01/29 08:39:32;;;;;;;86.20;35.95;;;;;;;-0.26;60.82;97820.53;5030474;28;20041;-57
2022/01/29 08:41:59;;;;;;;81.38;36.95;;;;;;;-0.28;60.12;97814.72;5029644;28;20458;-59
2022/01/29 08:44:25;;;;;;;72.57;32.67;;;;;;;-0.25;60.36;97822.91;5030382;28;20465;-57
2022/01/29 08:46:51;;;;;;;80.38;33.13;;;;;;;-0.17;61.57;97813.28;5028498;28;20045;-59
2022/01/29 08:49:17;;;;;;;79.68;32.75;;;;;;;-0.06;60.95;97813.44;5030759;28;20045;-59
2022/01/29 08:51:43;;;;;;;76.32;30.35;;;;;;;-0.26;60.02;97817.94;5032919;28;20045;-60
2022/01/29 08:54:09;;;;;;;71.20;31.05;;;;;;;-0.30;60.18;97820.13;5033955;28;20048;-60
2022/01/29 08:56:35;;;;;;;72.05;32.83;;;;;;;-0.44;61.97;97817.78;5032537;28;20065;-61
2022/01/29 08:59:00;;;;;;;76.00;32.15;;;;;;;-0.29;60.70;97832.16;5033619;28;20044;-59
2022/01/29 09:01:28;;;;;;;80.50;34.30;;;;;;;-0.23;60.64;97820.13;5033829;28;20041;-60
2022/01/29 09:03:54;;;;;;;76.22;33.75;;;;;;;-0.16;60.37;97825.28;5031596;28;20037;-59
2022/01/29 09:06:21;;;;;;;84.68;34.47;;;;;;;-0.20;60.84;97832.72;5033613;28;20033;-61
2022/01/29 09:08:49;;;;;;;79.30;33.88;;;;;;;-0.16;60.58;97836.50;5033106;28;20046;-58
2022/01/29 09:11:16;;;;;;;83.97;35.35;;;;;;;-0.27;60.16;97835.34;5015209;28;20088;-58
2022/01/29 09:13:41;;;;;;;86.70;34.83;;;;;;;-0.21;59.66;97845.94;5033628;28;20049;-62
2022/01/29 09:16:07;;;;;;;86.70;35.67;;;;;;;-0.27;62.31;97839.75;5033820;28;20057;-60
2022/01/29 09:18:33;;;;;;;79.05;35.28;;;;;;;-0.32;60.60;97845.59;5033759;28;20491;-59
2022/01/29 09:20:59;;;;;;;83.82;31.88;;;;;;;-0.17;61.22;97845.34;5045175;28;20060;-58
2022/01/29 09:23:25;;;;;;;73.40;32.80;;;;;;;0.06;61.54;97847.44;5031448;28;20122;-60
2022/01/29 09:25:51;;;;;;;77.65;32.13;;;;;;;0.26;60.89;97847.34;5033603;28;20504;-60
2022/01/29 09:28:17;;;;;;;83.07;34.95;;;;;;;0.07;59.95;97843.03;5033263;28;20041;-62
2022/01/29 09:30:43;;;;;;;83.20;33.78;;;;;;;0.19;61.03;97839.56;5031925;28;20052;-61
2022/01/29 09:33:10;;;;;;;99.20;40.10;;;;;;;0.40;60.06;97840.25;5011846;28;20034;-59
2022/01/29 09:35:38;;;;;;;95.10;40.50;;;;;;;0.45;58.98;97846.44;5035174;28;20599;-60
2022/01/29 09:38:06;;;;;;;96.18;39.17;;;;;;;0.14;59.27;97846.41;5051628;28;20048;-60
2022/01/29 09:40:32;;;;;;;94.85;39.00;;;;;;;0.12;60.80;97846.63;5052041;28;20430;-58
2022/01/29 09:43:00;;;;;;;90.35;36.53;;;;;;;0.33;59.80;97845.50;5049786;28;20041;-60
2022/01/29 09:45:26;;;;;;;91.70;38.40;;;;;;;0.52;59.32;97850.81;5028715;28;20100;-61
2022/01/29 09:48:01;;;;;;;77.78;34.28;;;;;;;0.66;59.67;97854.94;5013286;28;20050;-59
2022/01/29 09:50:29;;;;;;;78.40;34.72;;;;;;;0.76;58.26;97859.66;4996536;28;20073;-59
2022/01/29 09:52:56;;;;;;;83.00;33.63;;;;;;;0.76;58.81;97857.06;5032391;28;20426;-60
2022/01/29 09:55:22;;;;;;;79.95;35.90;;;;;;;0.71;58.15;97851.66;5015020;28;20499;-59
2022/01/29 09:57:48;;;;;;;79.15;34.28;;;;;;;0.66;58.25;97862.75;5033172;28;20406;-61
2022/01/29 10:00:14;;;;;;;79.15;34.00;;;;;;;0.58;58.87;97858.59;5051749;28;20127;-61
2022/01/29 10:02:40;;;;;;;78.65;35.13;;;;;;;0.64;59.15;97855.13;5040561;28;20045;-59
2022/01/29 10:05:07;;;;;;;82.45;34.30;;;;;;;0.46;58.09;97855.06;5031577;28;20589;-61
2022/01/29 10:07:34;;;;;;;72.55;33.65;;;;;;;0.40;59.29;97861.09;5042848;28;20032;-62
2022/01/29 10:10:03;;;;;;;71.43;32.20;;;;;;;0.56;59.54;97862.41;5031411;28;20773;-60
2022/01/29 10:12:31;;;;;;;79.53;33.95;;;;;;;0.62;58.03;97858.97;5032764;28;20045;-57
2022/01/29 10:15:03;;;;;;;78.30;35.22;;;;;;;0.59;58.63;97848.94;5031636;28;20045;-62
2022/01/29 10:17:48;;;;;;;90.82;38.45;;;;;;;0.48;59.51;97854.84;5040342;28;20033;-60
2022/01/29 10:20:17;;;;;;;77.60;32.92;;;;;;;0.43;59.39;97850.25;5052734;28;20414;-61
2022/01/29 10:22:53;;;;;;;77.30;33.80;;;;;;;0.53;59.10;97850.59;5032175;28;20046;-62
2022/01/29 10:25:33;;;;;;;76.95;34.50;;;;;;;0.63;58.82;97847.53;5052249;28;20398;-62
2022/01/29 10:28:19;;;;;;;78.90;33.92;;;;;;;0.54;59.70;97852.19;5050568;28;20052;-61
2022/01/29 10:30:48;;;;;;;76.35;32.85;;;;;;;0.66;59.00;97855.72;5050809;28;20049;-61
2022/01/29 10:33:29;;;;;;;82.72;34.40;;;;;;;0.69;58.98;97846.69;5049112;28;20414;-60
2022/01/29 10:36:07;;;;;;;76.22;33.40;;;;;;;0.78;58.12;97845.41;5051712;28;20057;-61
2022/01/29 10:38:53;;;;;;;79.53;33.25;;;;;;;0.77;59.49;97841.22;5050835;28;20037;-62
2022/01/29 10:41:25;;;;;;;74.45;32.22;;;;;;;0.85;58.67;97833.13;5050746;28;20045;-62
2022/01/29 10:46:52;;;;;;;77.55;33.28;;;;;;;0.99;58.29;97833.00;4978857;28;20053;-62
2022/01/29 10:49:32;;;;;;;80.22;32.50;;;;;;;1.03;58.36;97831.56;5013683;28;20072;-62
2022/01/29 10:52:14;;;;;;;;;;;;;;;0.91;58.41;97844.50;5030370;28;20061;-62
2022/01/29 10:54:43;;;;;;;84.07;32.42;;;;;;;1.00;58.80;97842.44;5032377;28;19925;-61
2022/01/29 10:57:11;;;;;;;92.60;37.17;;;;;;;0.92;58.29;97840.91;5015037;28;20060;-60
2022/01/29 10:59:58;;;;;;;90.22;37.63;;;;;;;0.99;58.90;97841.63;5031715;28;20558;-60
2022/01/29 11:02:30;;;;;;;86.65;37.75;;;;;;;1.03;58.98;97842.00;5034784;28;20076;-61
2022/01/29 11:04:56;;;;;;;86.22;35.92;;;;;;;0.90;58.77;97816.81;5051831;28;20063;-57
2022/01/29 11:07:28;;;;;;;89.45;36.05;;;;;;;0.99;59.43;97820.75;5033276;28;20072;-58
2022/01/29 11:09:54;;;;;;;82.40;33.67;;;;;;;1.10;58.99;97830.50;5051079;28;20044;-59
2022/01/29 11:12:25;;;;;;;94.95;39.95;;;;;;;0.88;59.32;97826.66;5051473;28;20474;-59
2022/01/29 11:14:58;;;;;;;92.85;40.03;;;;;;;0.80;59.73;97829.56;5049602;28;20047;-59
2022/01/29 11:17:24;;;;;;;93.45;39.10;;;;;;;0.78;59.34;97832.38;5011424;28;20077;-60
2022/01/29 11:19:51;;;;;;;84.55;34.63;;;;;;;0.84;59.98;97828.91;5027630;28;20044;-58
2022/01/29 11:22:22;;;;;;;88.82;36.90;;;;;;;0.79;60.06;97827.94;5032195;28;20041;-59
2022/01/29 11:24:49;;;;;;;80.05;35.75;;;;;;;0.75;60.27;97830.19;5052620;28;20037;-60
2022/01/29 11:27:23;;;;;;;86.75;35.65;;;;;;;0.71;60.17;97833.41;5050965;28;20049;-58
2022/01/29 11:30:00;;;;;;;87.28;37.08;;;;;;;0.73;60.89;97823.59;5051675;28;20061;-60
2022/01/29 11:32:33;;;;;;;76.85;35.30;;;;;;;0.67;60.93;97833.06;5049962;28;20049;-57
2022/01/29 11:35:09;;;;;;;83.32;34.63;;;;;;;0.68;60.22;97829.44;5051786;28;20147;-57